createdAt,value
2022-12-22T00:02:07.959Z,7.44
2022-12-22T00:04:53.827Z,7.50
2022-12-22T00:07:39.906Z,7.49
2022-12-22T00:10:27.222Z,7.50
2022-12-22T00:13:13.118Z,7.49
2022-12-22T00:15:58.982Z,7.42
2022-12-22T00:18:45.707Z,7.52
2022-12-22T00:21:32.270Z,7.49
2022-12-22T00:24:18.075Z,7.50
2022-12-22T00:27:06.446Z,7.50
2022-12-22T00:30:01.638Z,7.44
2022-12-22T00:32:52.000Z,7.51
2022-12-22T00:35:41.326Z,7.49
2022-12-22T00:38:37.059Z,7.50
2022-12-22T00:41:23.461Z,7.50
2022-12-22T00:44:09.897Z,7.47
2022-12-22T00:47:06.886Z,7.51
2022-12-22T00:49:54.484Z,7.51
2022-12-22T00:52:42.526Z,7.49
2022-12-22T00:55:38.584Z,7.50
2022-12-22T00:58:31.747Z,7.51
2022-12-22T01:01:17.619Z,7.42
2022-12-22T01:04:03.557Z,7.50
2022-12-22T01:06:52.817Z,7.47
2022-12-22T01:09:39.987Z,7.49
2022-12-22T01:12:36.996Z,7.50
2022-12-22T01:15:28.427Z,7.47
2022-12-22T01:18:13.848Z,7.52
2022-12-22T01:20:59.763Z,7.52
2022-12-22T01:23:46.404Z,7.52
2022-12-22T01:26:32.165Z,7.52
2022-12-22T01:29:18.229Z,7.54
2022-12-22T01:32:04.240Z,7.45
2022-12-22T01:34:49.904Z,7.50
2022-12-22T01:37:36.299Z,7.56
2022-12-22T01:40:22.355Z,7.57
2022-12-22T01:43:08.315Z,7.51
2022-12-22T01:45:56.928Z,7.56
2022-12-22T01:48:50.543Z,7.56
2022-12-22T01:51:43.916Z,7.62
2022-12-22T01:54:31.357Z,7.62
2022-12-22T01:57:17.713Z,7.63
2022-12-22T02:00:03.657Z,7.64
2022-12-22T02:02:51.319Z,7.65
2022-12-22T02:05:38.260Z,7.66
2022-12-22T02:08:38.786Z,7.66
2022-12-22T02:11:51.690Z,7.62
2022-12-22T02:14:47.200Z,7.60
2022-12-22T02:18:02.169Z,7.68
2022-12-22T02:21:04.125Z,7.67
2022-12-22T02:24:19.333Z,7.68
2022-12-22T02:27:08.661Z,7.68
2022-12-22T02:29:59.781Z,7.63
2022-12-22T02:32:45.826Z,7.67
2022-12-22T02:35:34.708Z,7.66
2022-12-22T02:38:20.115Z,7.66
2022-12-22T02:41:14.939Z,7.66
2022-12-22T02:44:31.486Z,7.67
2022-12-22T02:47:38.862Z,7.66
2022-12-22T02:50:58.873Z,7.68
2022-12-22T02:53:47.411Z,7.65
2022-12-22T02:56:32.966Z,7.63
2022-12-22T02:59:18.487Z,7.61
2022-12-22T03:02:06.850Z,7.66
2022-12-22T03:04:52.199Z,7.63
2022-12-22T03:07:38.221Z,7.60
2022-12-22T03:10:24.182Z,7.59
2022-12-22T03:13:10.240Z,7.60
2022-12-22T03:15:55.982Z,7.55
2022-12-22T03:18:41.986Z,7.58
2022-12-22T03:21:27.842Z,7.56
2022-12-22T03:24:13.715Z,7.54
2022-12-22T03:26:41.252Z,7.55
2022-12-22T03:29:08.376Z,7.55
2022-12-22T03:31:35.923Z,7.51
2022-12-22T03:34:03.131Z,7.52
2022-12-22T03:36:30.165Z,7.53
2022-12-22T03:38:57.208Z,7.48
2022-12-22T03:41:43.207Z,7.50
2022-12-22T03:44:28.934Z,7.51
2022-12-22T03:46:56.109Z,7.54
2022-12-22T03:49:23.314Z,7.50
2022-12-22T03:51:51.952Z,7.52
2022-12-22T03:54:21.674Z,7.56
2022-12-22T03:56:49.484Z,7.55
2022-12-22T03:59:18.037Z,7.44
2022-12-22T04:01:47.974Z,7.51
2022-12-22T04:04:17.013Z,7.51
2022-12-22T04:06:44.482Z,7.50
2022-12-22T04:09:11.855Z,7.43
2022-12-22T04:11:58.027Z,7.46
2022-12-22T04:14:33.099Z,7.50
2022-12-22T04:17:02.237Z,7.46
2022-12-22T04:19:29.818Z,7.50
2022-12-22T04:21:57.063Z,7.45
2022-12-22T04:24:24.256Z,7.44
2022-12-22T04:26:51.550Z,7.51
2022-12-22T04:29:18.674Z,7.50
2022-12-22T04:31:45.790Z,7.50
2022-12-22T04:34:12.818Z,7.49
2022-12-22T04:36:40.199Z,7.46
2022-12-22T04:39:07.704Z,7.47
2022-12-22T04:41:34.865Z,7.51
2022-12-22T04:44:02.397Z,7.51
2022-12-22T04:46:29.629Z,7.52
2022-12-22T04:49:00.230Z,7.50
2022-12-22T04:51:28.339Z,7.46
2022-12-22T04:53:55.660Z,7.51
2022-12-22T04:56:22.770Z,7.52
2022-12-22T04:58:49.914Z,7.52
2022-12-22T05:01:19.085Z,7.51
2022-12-22T05:03:47.019Z,7.52
2022-12-22T05:06:14.534Z,7.51
2022-12-22T05:08:42.253Z,7.53
2022-12-22T05:11:10.101Z,7.51
2022-12-22T05:13:37.726Z,7.54
2022-12-22T05:16:07.671Z,7.52
2022-12-22T05:18:36.122Z,7.53
2022-12-22T05:21:07.773Z,7.52
2022-12-22T05:23:35.020Z,7.56
2022-12-22T05:26:02.572Z,7.54
2022-12-22T05:28:29.724Z,7.52
2022-12-22T05:30:56.879Z,7.58
2022-12-22T05:33:23.984Z,7.52
2022-12-22T05:35:51.031Z,7.60
2022-12-22T05:38:18.171Z,7.60
2022-12-22T05:40:45.329Z,7.55
2022-12-22T05:43:12.413Z,7.55
2022-12-22T05:45:39.512Z,7.60
2022-12-22T05:48:07.625Z,7.60
2022-12-22T05:50:34.954Z,7.52
2022-12-22T05:53:02.778Z,7.59
2022-12-22T05:55:29.887Z,7.56
2022-12-22T05:57:57.068Z,7.58
2022-12-22T06:00:24.132Z,7.56
2022-12-22T06:02:51.373Z,7.56
2022-12-22T06:05:18.469Z,7.56
2022-12-22T06:07:45.540Z,7.53
2022-12-22T06:10:13.981Z,7.57
2022-12-22T06:12:42.264Z,7.53
2022-12-22T06:15:12.325Z,7.57
2022-12-22T06:17:45.018Z,7.55
2022-12-22T06:20:14.000Z,7.48
2022-12-22T06:22:41.642Z,7.40
2022-12-22T06:25:12.164Z,7.44
2022-12-22T06:27:42.812Z,7.42
2022-12-22T06:30:11.108Z,7.39
2022-12-22T06:32:38.993Z,7.34
2022-12-22T06:35:10.020Z,7.25
2022-12-22T06:37:37.376Z,7.28
2022-12-22T06:40:07.743Z,7.33
2022-12-22T06:42:53.485Z,7.33
2022-12-22T06:45:20.615Z,7.23
2022-12-22T06:47:47.665Z,7.24
2022-12-22T06:50:14.919Z,7.24
2022-12-22T06:52:42.713Z,7.22
2022-12-22T06:55:10.044Z,7.26
2022-12-22T06:57:37.185Z,7.28
2022-12-22T07:00:06.490Z,7.23
2022-12-22T07:02:33.744Z,7.27
2022-12-22T07:05:00.853Z,7.24
2022-12-22T07:07:28.050Z,7.18
2022-12-22T07:09:55.601Z,7.23
2022-12-22T07:12:23.712Z,7.14
2022-12-22T07:14:50.994Z,7.12
2022-12-22T07:17:18.080Z,7.13
2022-12-22T07:19:45.146Z,7.17
2022-12-22T07:22:12.233Z,7.15
2022-12-22T07:24:39.267Z,7.10
2022-12-22T07:27:08.322Z,7.16
2022-12-22T07:29:37.233Z,7.21
2022-12-22T07:32:04.419Z,7.21
2022-12-22T07:34:31.522Z,7.19
2022-12-22T07:36:58.630Z,7.13
2022-12-22T07:39:25.782Z,7.11
2022-12-22T07:42:11.806Z,7.04
2022-12-22T07:44:38.932Z,7.02
2022-12-22T07:47:06.697Z,6.96
2022-12-22T07:49:52.224Z,7.05
2022-12-22T07:52:19.318Z,6.98
2022-12-22T07:54:46.431Z,7.08
2022-12-22T07:57:13.516Z,6.99
2022-12-22T07:59:41.164Z,6.88
2022-12-22T08:02:13.438Z,6.94
2022-12-22T08:04:41.203Z,6.87
2022-12-22T08:07:08.381Z,6.94
2022-12-22T08:09:36.271Z,6.92
2022-12-22T08:12:03.472Z,6.74
2022-12-22T08:14:30.624Z,6.88
2022-12-22T08:16:58.222Z,6.99
2022-12-22T08:19:25.279Z,6.97
2022-12-22T08:21:53.369Z,6.96
2022-12-22T08:24:21.410Z,7.00
2022-12-22T08:26:52.627Z,7.02
2022-12-22T08:29:24.223Z,7.08
2022-12-22T08:31:51.442Z,7.05
2022-12-22T08:34:18.698Z,7.05
2022-12-22T08:36:55.376Z,6.92
2022-12-22T08:39:25.729Z,7.00
2022-12-22T08:41:53.447Z,6.92
2022-12-22T08:44:28.685Z,6.80
2022-12-22T08:46:57.667Z,6.88
2022-12-22T08:49:25.581Z,6.78
2022-12-22T08:51:53.337Z,6.64
2022-12-22T08:54:21.197Z,6.74
2022-12-22T08:56:49.420Z,6.61
2022-12-22T08:59:17.609Z,6.70
2022-12-22T09:01:48.060Z,6.74
2022-12-22T09:04:18.228Z,6.64
2022-12-22T09:06:45.993Z,6.74
2022-12-22T09:09:14.467Z,6.63
2022-12-22T09:11:41.754Z,6.68
2022-12-22T09:14:11.974Z,6.75
2022-12-22T09:16:40.226Z,6.76
2022-12-22T09:19:08.358Z,6.77
2022-12-22T09:21:35.992Z,6.76
2022-12-22T09:24:04.963Z,6.71
2022-12-22T09:26:32.392Z,6.82
2022-12-22T09:29:00.136Z,6.92
2022-12-22T09:31:28.149Z,6.91
2022-12-22T09:33:55.710Z,7.04
2022-12-22T09:36:27.956Z,7.18
2022-12-22T09:38:55.078Z,7.32
2022-12-22T09:41:36.028Z,7.42
2022-12-22T09:44:24.338Z,7.34
2022-12-22T09:46:55.806Z,7.35
2022-12-22T09:49:23.222Z,7.38
2022-12-22T09:51:57.137Z,7.50
2022-12-22T09:54:25.368Z,7.49
2022-12-22T09:56:52.505Z,7.59
2022-12-22T09:59:21.345Z,7.62
2022-12-22T10:02:24.416Z,7.66
2022-12-22T10:05:07.484Z,7.66
2022-12-22T10:07:39.132Z,7.54
2022-12-22T10:10:07.688Z,7.65
2022-12-22T10:12:34.917Z,7.74
2022-12-22T10:15:01.967Z,7.65
2022-12-22T10:17:31.567Z,7.79
2022-12-22T10:20:17.246Z,7.92
2022-12-22T10:22:51.070Z,7.85
2022-12-22T10:26:26.988Z,7.91
2022-12-22T10:28:29.003Z,7.93
2022-12-22T10:31:14.667Z,7.96
2022-12-22T10:33:47.238Z,7.97
2022-12-22T10:36:27.037Z,8.00
2022-12-22T10:39:07.405Z,8.01
2022-12-22T10:41:44.758Z,7.96
2022-12-22T10:44:23.092Z,8.03
2022-12-22T10:46:53.455Z,7.98
2022-12-22T10:49:25.176Z,7.97
2022-12-22T10:51:55.700Z,8.01
2022-12-22T10:54:49.526Z,8.02
2022-12-22T10:57:16.704Z,8.05
2022-12-22T10:59:54.338Z,8.14
2022-12-22T11:02:21.682Z,8.13
2022-12-22T11:04:50.375Z,8.23
2022-12-22T11:07:18.116Z,8.19
2022-12-22T11:09:45.255Z,8.29
2022-12-22T11:12:49.784Z,8.27
2022-12-22T11:15:29.255Z,8.38
2022-12-22T11:18:11.419Z,8.51
2022-12-22T11:21:24.337Z,8.53
2022-12-22T11:24:21.652Z,8.60
2022-12-22T11:27:16.930Z,8.73
2022-12-22T11:29:58.139Z,8.76
2022-12-22T11:33:16.274Z,8.82
2022-12-22T11:36:01.855Z,8.77
2022-12-22T11:38:41.319Z,8.87
2022-12-22T11:41:50.799Z,8.91
2022-12-22T11:44:43.090Z,8.93
2022-12-22T11:47:19.142Z,8.91
2022-12-22T11:49:52.070Z,8.85
2022-12-22T11:52:38.792Z,8.92
2022-12-22T11:55:35.090Z,8.93
2022-12-22T11:58:18.328Z,8.91
2022-12-22T12:01:22.321Z,8.93
2022-12-22T12:04:14.692Z,9.17
2022-12-22T12:07:07.437Z,9.08
2022-12-22T12:09:43.310Z,9.09
2022-12-22T12:12:36.880Z,9.14
2022-12-22T12:15:03.915Z,9.24
2022-12-22T12:17:43.294Z,9.23
2022-12-22T12:20:45.749Z,9.13
2022-12-22T12:23:24.653Z,9.27
2022-12-22T12:25:55.203Z,9.28
2022-12-22T12:28:25.369Z,9.29
2022-12-22T12:30:59.289Z,9.28
2022-12-22T12:33:48.262Z,9.35
2022-12-22T12:36:27.083Z,9.42
2022-12-22T12:39:26.149Z,9.41
2022-12-22T12:42:20.811Z,9.48
2022-12-22T12:44:48.635Z,9.21
2022-12-22T12:47:36.112Z,9.38
2022-12-22T12:50:32.544Z,9.34
2022-12-22T12:53:08.915Z,9.17
2022-12-22T12:56:03.889Z,9.10
2022-12-22T12:58:48.365Z,9.02
2022-12-22T13:01:18.386Z,8.86
2022-12-22T13:04:03.480Z,8.63
2022-12-22T13:06:49.269Z,8.39
2022-12-22T13:12:40.299Z,8.28
2022-12-22T13:15:35.465Z,7.99
2022-12-22T13:18:09.665Z,7.90
2022-12-22T13:20:37.733Z,7.66
2022-12-22T13:23:12.266Z,7.74
2022-12-22T13:25:49.961Z,7.65
2022-12-22T13:28:18.939Z,7.57
2022-12-22T13:30:49.222Z,7.45
2022-12-22T13:33:20.908Z,7.53
2022-12-22T13:35:54.919Z,7.32
2022-12-22T13:38:32.272Z,7.26
2022-12-22T13:41:03.407Z,7.09
2022-12-22T13:43:33.087Z,7.21
2022-12-22T13:46:02.681Z,7.24
2022-12-22T13:48:43.922Z,7.28
2022-12-22T13:51:20.157Z,7.35
2022-12-22T13:54:11.999Z,7.37
2022-12-22T13:56:46.473Z,7.36
2022-12-22T13:59:26.184Z,7.36
2022-12-22T14:02:00.571Z,7.35
2022-12-22T14:04:29.804Z,7.36
2022-12-22T14:06:57.509Z,7.25
2022-12-22T14:09:27.073Z,7.27
2022-12-22T14:11:57.004Z,7.28
2022-12-22T14:14:28.175Z,7.28
2022-12-22T14:17:00.646Z,7.28
2022-12-22T14:19:36.936Z,7.48
2022-12-22T14:22:08.572Z,7.44
2022-12-22T14:24:43.094Z,7.47
2022-12-22T14:27:31.165Z,7.39
2022-12-22T14:30:00.826Z,7.39
2022-12-22T14:32:52.355Z,7.62
2022-12-22T14:35:21.387Z,7.67
2022-12-22T14:37:48.605Z,7.63
2022-12-22T14:40:35.936Z,7.74
2022-12-22T14:43:23.955Z,7.91
2022-12-22T14:45:52.473Z,7.91
2022-12-22T14:48:45.419Z,7.83
2022-12-22T14:51:17.784Z,7.84
2022-12-22T14:53:51.207Z,7.87
2022-12-22T14:56:19.122Z,7.87
2022-12-22T14:58:47.410Z,7.93
2022-12-22T15:01:25.133Z,7.99
2022-12-22T15:04:02.259Z,7.99
2022-12-22T15:06:29.388Z,8.01
2022-12-22T15:09:12.137Z,7.91
2022-12-22T15:11:44.886Z,7.91
2022-12-22T15:14:16.471Z,7.84
2022-12-22T15:16:44.888Z,7.89
2022-12-22T15:19:17.702Z,7.87
2022-12-22T15:21:44.708Z,7.83
2022-12-22T15:24:15.561Z,7.88
2022-12-22T15:26:44.187Z,7.92
2022-12-22T15:29:11.958Z,7.79
2022-12-22T15:31:40.285Z,7.85
2022-12-22T15:34:15.116Z,7.90
2022-12-22T15:36:42.840Z,7.71
2022-12-22T15:39:15.605Z,7.85
2022-12-22T15:41:44.328Z,7.90
2022-12-22T15:44:12.854Z,7.92
2022-12-22T15:46:43.146Z,7.78
2022-12-22T15:49:18.116Z,7.81
2022-12-22T15:51:50.129Z,7.86
2022-12-22T15:54:18.243Z,7.90
2022-12-22T15:56:46.341Z,7.98
2022-12-22T15:59:22.479Z,8.05
2022-12-22T16:01:56.505Z,8.04
2022-12-22T16:04:28.194Z,8.08
2022-12-22T16:06:56.318Z,8.07
2022-12-22T16:09:27.545Z,8.04
2022-12-22T16:11:55.117Z,8.00
2022-12-22T16:14:22.750Z,7.98
2022-12-22T16:16:50.190Z,7.93
2022-12-22T16:19:18.344Z,7.91
2022-12-22T16:21:48.191Z,7.85
2022-12-22T16:24:26.522Z,7.96
2022-12-22T16:26:56.904Z,7.90
2022-12-22T16:29:25.003Z,8.04
2022-12-22T16:31:52.435Z,8.09
2022-12-22T16:34:19.626Z,8.00
2022-12-22T16:36:46.721Z,7.99
2022-12-22T16:39:13.808Z,7.98
2022-12-22T16:41:43.506Z,7.97
2022-12-22T16:44:22.588Z,8.03
2022-12-22T16:46:49.969Z,7.92
2022-12-22T16:49:26.134Z,7.82
2022-12-22T16:51:55.147Z,7.84
2022-12-22T16:54:22.293Z,7.82
2022-12-22T16:56:51.562Z,7.80
2022-12-22T16:59:18.847Z,7.73
2022-12-22T17:01:52.478Z,7.82
2022-12-22T17:04:28.396Z,7.80
2022-12-22T17:06:58.335Z,7.75
2022-12-22T17:09:31.106Z,7.78
2022-12-22T17:11:59.390Z,7.82
2022-12-22T17:14:31.461Z,7.80
2022-12-22T17:17:01.498Z,7.91
2022-12-22T17:19:28.734Z,7.78
2022-12-22T17:21:58.663Z,7.91
2022-12-22T17:24:28.649Z,7.81
2022-12-22T17:27:04.918Z,7.95
2022-12-22T17:29:35.568Z,7.97
2022-12-22T17:32:02.799Z,7.83
2022-12-22T17:34:30.002Z,7.70
2022-12-22T17:36:59.255Z,7.88
2022-12-22T17:39:26.413Z,7.93
2022-12-22T17:41:57.297Z,7.86
2022-12-22T17:44:27.410Z,7.90
2022-12-22T17:46:54.716Z,7.91
2022-12-22T17:49:22.759Z,7.92
2022-12-22T17:51:50.404Z,7.88
2022-12-22T17:54:26.251Z,7.93
2022-12-22T17:57:01.833Z,7.91
2022-12-22T17:59:29.271Z,7.95
2022-12-22T18:01:56.697Z,7.97
2022-12-22T18:04:23.886Z,7.96
2022-12-22T18:06:51.155Z,8.03
2022-12-22T18:09:25.090Z,8.06
2022-12-22T18:11:53.658Z,8.10
2022-12-22T18:14:22.252Z,8.04
2022-12-22T18:16:49.498Z,8.18
2022-12-22T18:19:16.626Z,8.15
2022-12-22T18:21:44.199Z,8.21
2022-12-22T18:24:19.338Z,8.14
2022-12-22T18:26:47.192Z,8.18
2022-12-22T18:29:15.746Z,8.09
2022-12-22T18:31:44.119Z,8.27
2022-12-22T18:34:12.222Z,8.22
2022-12-22T18:36:42.406Z,8.30
2022-12-22T18:39:18.804Z,8.28
2022-12-22T18:41:46.485Z,8.33
2022-12-22T18:44:17.679Z,8.32
2022-12-22T18:46:45.432Z,8.36
2022-12-22T18:49:12.746Z,8.37
2022-12-22T18:51:39.896Z,8.42
2022-12-22T18:54:22.714Z,8.44
2022-12-22T18:56:49.815Z,8.47
2022-12-22T18:59:24.810Z,8.48
2022-12-22T19:01:52.585Z,8.49
2022-12-22T19:04:19.968Z,8.47
2022-12-22T19:06:47.061Z,8.57
2022-12-22T19:09:15.418Z,8.63
2022-12-22T19:11:43.343Z,8.61
2022-12-22T19:14:18.252Z,8.71
2022-12-22T19:16:46.008Z,8.73
2022-12-22T19:19:18.645Z,8.75
2022-12-22T19:21:48.572Z,8.72
2022-12-22T19:24:18.496Z,8.78
2022-12-22T19:26:45.611Z,8.73
2022-12-22T19:29:14.829Z,8.79
2022-12-22T19:31:43.298Z,8.89
2022-12-22T19:34:16.568Z,8.90
2022-12-22T19:36:43.646Z,8.94
2022-12-22T19:39:11.217Z,8.86
2022-12-22T19:41:51.289Z,8.91
2022-12-22T19:44:18.414Z,9.00
2022-12-22T19:46:45.919Z,8.94
2022-12-22T19:49:19.293Z,9.02
2022-12-22T19:51:46.399Z,9.06
2022-12-22T19:54:14.111Z,9.08
2022-12-22T19:56:42.918Z,9.02
2022-12-22T19:59:28.191Z,9.14
2022-12-22T20:01:57.384Z,9.22
2022-12-22T20:04:24.559Z,9.27
2022-12-22T20:06:51.657Z,9.23
2022-12-22T20:09:18.738Z,9.26
2022-12-22T20:11:46.221Z,9.32
2022-12-22T20:14:19.366Z,9.31
2022-12-22T20:16:46.455Z,9.36
2022-12-22T20:19:14.399Z,9.41
2022-12-22T20:21:41.987Z,9.47
2022-12-22T20:24:19.596Z,9.44
2022-12-22T20:26:52.012Z,9.57
2022-12-22T20:29:21.673Z,9.57
2022-12-22T20:31:48.785Z,9.59
2022-12-22T20:34:15.909Z,9.67
2022-12-22T20:36:43.384Z,9.61
2022-12-22T20:39:13.518Z,9.70
2022-12-22T20:41:43.352Z,9.69
2022-12-22T20:44:12.758Z,9.68
2022-12-22T20:46:40.781Z,9.77
2022-12-22T20:49:15.038Z,9.70
2022-12-22T20:51:42.129Z,9.79
2022-12-22T20:54:14.125Z,9.82
2022-12-22T20:56:44.091Z,9.76
2022-12-22T20:59:17.608Z,9.77
2022-12-22T21:01:46.569Z,9.74
2022-12-22T21:04:15.818Z,9.77
2022-12-22T21:06:49.045Z,9.80
2022-12-22T21:09:16.664Z,9.70
2022-12-22T21:11:44.201Z,9.70
2022-12-22T21:14:12.667Z,9.79
2022-12-22T21:16:41.567Z,9.87
2022-12-22T21:19:15.078Z,9.91
2022-12-22T21:21:42.141Z,10.03
2022-12-22T21:24:09.475Z,10.03
2022-12-22T21:26:43.656Z,10.02
2022-12-22T21:29:21.717Z,10.00
2022-12-22T21:31:48.828Z,10.03
2022-12-22T21:34:16.008Z,9.96
2022-12-22T21:36:45.787Z,10.01
2022-12-22T21:39:25.377Z,10.04
2022-12-22T21:42:03.091Z,9.98
2022-12-22T21:44:33.003Z,9.94
2022-12-22T21:47:00.601Z,9.89
2022-12-22T21:49:30.625Z,10.09
2022-12-22T21:51:57.678Z,9.95
2022-12-22T21:54:25.974Z,10.05
2022-12-22T21:56:54.303Z,10.13
2022-12-22T21:59:22.113Z,10.10
2022-12-22T22:01:52.415Z,10.11
2022-12-22T22:04:20.990Z,10.09
2022-12-22T22:06:48.606Z,10.08
2022-12-22T22:09:15.733Z,10.10
2022-12-22T22:12:01.532Z,10.13
2022-12-22T22:14:28.676Z,10.12
2022-12-22T22:16:55.869Z,10.10
2022-12-22T22:19:22.924Z,10.05
2022-12-22T22:21:50.016Z,10.01
2022-12-22T22:24:17.166Z,10.13
2022-12-22T22:26:45.980Z,10.14
2022-12-22T22:29:13.378Z,10.23
2022-12-22T22:31:41.503Z,10.28
2022-12-22T22:34:10.015Z,10.22
2022-12-22T22:36:37.325Z,10.17
2022-12-22T22:39:04.550Z,10.18
2022-12-22T22:41:39.084Z,10.26
2022-12-22T22:44:07.400Z,10.28
2022-12-22T22:46:34.341Z,10.24
2022-12-22T22:49:01.445Z,10.20
2022-12-22T22:51:28.652Z,10.24
2022-12-22T22:53:55.729Z,10.19
2022-12-22T22:56:22.828Z,10.28
2022-12-22T22:58:49.914Z,10.34
2022-12-22T23:01:16.997Z,10.35
2022-12-22T23:03:44.222Z,10.43
2022-12-22T23:06:13.163Z,10.30
2022-12-22T23:08:40.789Z,10.44
2022-12-22T23:11:13.705Z,10.54
2022-12-22T23:13:41.189Z,10.54
2022-12-22T23:16:08.462Z,10.48
2022-12-22T23:18:37.003Z,10.48
2022-12-22T23:21:07.541Z,10.54
2022-12-22T23:23:35.458Z,10.45
2022-12-22T23:26:03.235Z,10.43
2022-12-22T23:28:30.294Z,10.47
2022-12-22T23:30:57.434Z,10.47
2022-12-22T23:33:24.795Z,10.34
2022-12-22T23:35:52.511Z,10.36
2022-12-22T23:38:20.991Z,10.34
2022-12-22T23:40:53.692Z,10.36
2022-12-22T23:43:21.942Z,10.23
2022-12-22T23:45:49.228Z,10.32
2022-12-22T23:48:16.428Z,10.33
2022-12-22T23:50:47.434Z,10.26
2022-12-22T23:53:15.615Z,10.21
2022-12-22T23:55:46.256Z,10.33
2022-12-22T23:58:14.777Z,10.26
